Time;durP1;ratioP1;P1;durP2;ratioP2;P2;SDS_P1;SDS_P2;PMS_P1;PMS_P2;Temp;Humidity;BMP_temperature;BMP_pressure;BME280_temperature;BME280_humidity;BME280_pressure;Samples;Min_cycle;Max_cycle;Signal;HPM_P1;HPM_P2
2023/10/02 00:00:40;;;;;;;18.13;7.72;;;;;;;;;;4996260;28;20041;-75
2023/10/02 00:03:09;;;;;;;21.98;7.72;;;;;;;;;;4997277;28;20092;-76
2023/10/02 00:05:51;;;;;;;19.67;7.93;;;;;;;;;;4999550;28;20422;-75
2023/10/02 00:08:39;;;;;;;18.88;7.10;;;;;;;;;;4999355;28;20057;-76
2023/10/02 00:11:36;;;;;;;20.70;7.95;;;;;;;;;;5000774;28;20113;-76
2023/10/02 00:14:22;;;;;;;17.35;7.03;;;;;;;;;;4998441;28;20030;-76
2023/10/02 00:16:59;;;;;;;16.65;6.80;;;;;;;;;;4999217;28;20034;-76
2023/10/02 00:19:41;;;;;;;17.65;7.57;;;;;;;;;;5002037;28;20089;-76
2023/10/02 00:22:08;;;;;;;20.35;7.90;;;;;;;;;;5002606;28;20038;-76
2023/10/02 00:24:40;;;;;;;18.70;7.50;;;;;;;;;;5001480;28;20102;-77
2023/10/02 00:27:07;;;;;;;19.13;7.32;;;;;;;;;;5001968;28;20052;-76
2023/10/02 00:29:33;;;;;;;20.77;8.20;;;;;;;;;;4985120;28;20030;-76
2023/10/02 00:31:59;;;;;;;18.50;7.30;;;;;;;;;;4985927;28;20070;-76
2023/10/02 00:34:31;;;;;;;20.20;7.50;;;;;;;;;;4969627;28;20050;-75
2023/10/02 00:37:08;;;;;;;22.58;8.70;;;;;;;;;;4987666;28;20038;-75
2023/10/02 00:39:35;;;;;;;19.35;7.78;;;;;;;;;;4987044;28;20076;-76
2023/10/02 00:45:01;;;;;;;21.17;7.85;;;;;;;;;;4981451;28;20069;-75
2023/10/02 00:48:33;;;;;;;18.08;7.65;;;;;;;;;;4996749;28;20038;-75
2023/10/02 00:50:27;;;;;;;21.55;8.20;;;;;;;;;;4992828;28;20043;-75
2023/10/02 00:52:53;;;;;;;18.00;7.07;;;;;;;;;;4998479;28;20049;-75
2023/10/02 00:55:20;;;;;;;18.75;7.18;;;;;;;;;;4981528;28;20056;-76
2023/10/02 00:57:47;;;;;;;17.38;6.85;;;;;;;;;;4998350;28;20029;-76
2023/10/02 01:00:30;;;;;;;22.17;8.13;;;;;;;;;;4985518;28;20022;-76
2023/10/02 01:02:57;;;;;;;20.15;7.13;;;;;;;;;;4998861;28;20031;-76
2023/10/02 01:05:42;;;;;;;16.98;7.15;;;;;;;;;;4998850;28;20026;-77
2023/10/02 01:08:23;;;;;;;19.25;7.63;;;;;;;;;;4997303;28;20033;-77
2023/10/02 01:10:59;;;;;;;19.10;7.40;;;;;;;;;;4995269;28;20037;-75
2023/10/02 01:13:32;;;;;;;22.58;8.25;;;;;;;;;;4992873;28;20125;-76
2023/10/02 01:16:03;;;;;;;19.38;7.32;;;;;;;;;;4993947;28;20045;-76
2023/10/02 01:18:33;;;;;;;17.45;6.82;;;;;;;;;;4992728;28;20034;-75
2023/10/02 01:21:08;;;;;;;18.05;7.75;;;;;;;;;;4976696;28;20033;-75
2023/10/02 01:23:44;;;;;;;18.25;7.72;;;;;;;;;;4977514;28;20038;-76
2023/10/02 01:26:10;;;;;;;23.58;8.00;;;;;;;;;;4960976;28;20077;-75
2023/10/02 01:28:52;;;;;;;20.17;7.38;;;;;;;;;;4977000;28;20089;-76
2023/10/02 01:31:35;;;;;;;24.17;7.43;;;;;;;;;;4992900;28;20037;-75
2023/10/02 01:34:04;;;;;;;16.38;7.22;;;;;;;;;;4976545;28;20031;-75
2023/10/02 01:36:32;;;;;;;18.70;7.20;;;;;;;;;;4992705;28;20073;-76
2023/10/02 01:39:10;;;;;;;20.10;6.47;;;;;;;;;;4977000;28;20038;-75
2023/10/02 01:41:36;;;;;;;20.02;7.45;;;;;;;;;;4977105;28;20034;-75
2023/10/02 01:44:06;;;;;;;16.65;6.90;;;;;;;;;;4976155;28;20065;-75
2023/10/02 01:46:34;;;;;;;15.65;6.85;;;;;;;;;;4976657;28;20094;-76
2023/10/02 01:49:00;;;;;;;15.50;6.70;;;;;;;;;;4993645;28;20038;-76
2023/10/02 01:51:26;;;;;;;18.88;7.05;;;;;;;;;;4993309;28;20402;-76
2023/10/02 01:53:53;;;;;;;16.13;7.07;;;;;;;;;;4992466;28;20386;-76
2023/10/02 01:56:18;;;;;;;16.80;6.82;;;;;;;;;;4960818;28;20038;-76
2023/10/02 01:58:45;;;;;;;15.25;6.78;;;;;;;;;;4976053;28;20038;-77
2023/10/02 02:01:10;;;;;;;16.38;6.85;;;;;;;;;;4976681;28;20038;-76
2023/10/02 02:03:41;;;;;;;22.73;7.22;;;;;;;;;;4960203;28;20034;-76
2023/10/02 02:06:09;;;;;;;19.45;7.35;;;;;;;;;;4992606;28;20026;-75
2023/10/02 02:08:43;;;;;;;18.23;7.05;;;;;;;;;;4992782;28;20030;-76
2023/10/02 02:11:16;;;;;;;17.98;7.38;;;;;;;;;;4992150;28;20026;-76
2023/10/02 02:13:52;;;;;;;21.40;6.80;;;;;;;;;;4992610;28;20070;-75
2023/10/02 02:16:21;;;;;;;18.67;7.03;;;;;;;;;;4993530;28;20033;-75
2023/10/02 02:18:53;;;;;;;19.40;7.07;;;;;;;;;;4993027;28;20034;-75
2023/10/02 02:21:23;;;;;;;22.02;7.00;;;;;;;;;;4992178;28;20553;-75
2023/10/02 02:24:03;;;;;;;20.48;7.20;;;;;;;;;;4991881;28;20040;-75
2023/10/02 02:26:30;;;;;;;17.60;6.75;;;;;;;;;;4992077;28;20023;-75
2023/10/02 02:28:56;;;;;;;17.02;6.88;;;;;;;;;;4976383;28;20065;-75
2023/10/02 02:31:31;;;;;;;17.73;6.65;;;;;;;;;;4995822;28;20030;-74
2023/10/02 02:33:58;;;;;;;15.20;6.30;;;;;;;;;;4980150;28;20030;-75
2023/10/02 02:36:41;;;;;;;15.20;6.32;;;;;;;;;;4995810;28;20038;-74
2023/10/02 02:39:17;;;;;;;16.08;6.18;;;;;;;;;;4996866;28;20054;-74
2023/10/02 02:41:45;;;;;;;13.75;6.32;;;;;;;;;;4996880;28;20026;-75
2023/10/02 02:44:33;;;;;;;19.10;7.15;;;;;;;;;;4979213;28;20030;-74
2023/10/02 02:46:57;;;;;;;17.83;7.22;;;;;;;;;;4979045;28;20046;-74
2023/10/02 02:49:26;;;;;;;15.00;7.60;;;;;;;;;;4995642;28;20026;-75
2023/10/02 02:51:55;;;;;;;15.68;5.78;;;;;;;;;;4995461;28;20030;-76
2023/10/02 02:54:25;;;;;;;17.33;7.28;;;;;;;;;;4963284;28;20046;-76
2023/10/02 02:56:56;;;;;;;15.13;6.28;;;;;;;;;;4995812;28;20117;-76
2023/10/02 02:59:26;;;;;;;17.50;6.40;;;;;;;;;;4979583;28;20093;-76
2023/10/02 03:01:52;;;;;;;17.63;6.82;;;;;;;;;;4963426;28;20030;-76
2023/10/02 03:04:18;;;;;;;16.42;7.22;;;;;;;;;;4995346;28;20038;-76
2023/10/02 03:07:07;;;;;;;18.95;6.95;;;;;;;;;;4995389;28;20084;-76
2023/10/02 03:09:34;;;;;;;13.73;6.75;;;;;;;;;;4995905;28;20453;-76
2023/10/02 03:12:00;;;;;;;15.18;6.28;;;;;;;;;;4995440;28;20101;-76
2023/10/02 03:14:28;;;;;;;19.42;5.78;;;;;;;;;;4979438;28;20069;-76
2023/10/02 03:16:54;;;;;;;17.48;5.65;;;;;;;;;;4979256;28;20034;-74
2023/10/02 03:19:19;;;;;;;17.95;6.82;;;;;;;;;;4994915;28;20064;-75
2023/10/02 03:21:48;;;;;;;17.23;6.65;;;;;;;;;;4963177;28;20041;-75
2023/10/02 03:24:18;;;;;;;16.42;6.65;;;;;;;;;;4978777;28;20050;-75
2023/10/02 03:26:49;;;;;;;15.35;6.32;;;;;;;;;;4997070;28;20027;-75
2023/10/02 03:29:22;;;;;;;15.63;6.38;;;;;;;;;;4995550;28;20152;-76
2023/10/02 03:31:51;;;;;;;12.52;6.03;;;;;;;;;;4996189;28;20112;-76
2023/10/02 03:34:28;;;;;;;18.42;6.43;;;;;;;;;;4979449;28;20402;-75
2023/10/02 03:36:59;;;;;;;15.73;6.10;;;;;;;;;;4997039;28;20041;-76
2023/10/02 03:42:13;;;;;;;16.17;6.93;;;;;;;;;;4997221;28;20490;-76
2023/10/02 03:44:40;;;;;;;14.73;6.13;;;;;;;;;;4996405;28;20038;-76
2023/10/02 03:47:06;;;;;;;13.98;6.25;;;;;;;;;;4982222;28;20030;-76
2023/10/02 03:49:32;;;;;;;16.55;6.65;;;;;;;;;;4995823;28;20446;-75
2023/10/02 03:51:58;;;;;;;16.35;5.57;;;;;;;;;;4963747;28;20037;-77
2023/10/02 03:54:29;;;;;;;19.55;6.50;;;;;;;;;;4979752;28;20141;-76
2023/10/02 03:56:55;;;;;;;19.38;5.97;;;;;;;;;;4978722;28;20098;-76
2023/10/02 03:59:22;;;;;;;13.60;6.57;;;;;;;;;;4979036;28;20042;-76
2023/10/02 04:01:50;;;;;;;16.10;6.22;;;;;;;;;;4963919;28;20034;-76
2023/10/02 04:04:21;;;;;;;16.88;5.63;;;;;;;;;;4995464;28;20105;-78
2023/10/02 04:06:53;;;;;;;15.00;5.93;;;;;;;;;;4994190;28;20038;-77
2023/10/02 04:09:23;;;;;;;16.30;5.70;;;;;;;;;;4996123;28;20054;-76
2023/10/02 04:11:51;;;;;;;14.38;6.18;;;;;;;;;;4994461;28;20048;-76
2023/10/02 04:14:17;;;;;;;13.93;5.57;;;;;;;;;;4994967;28;20030;-76
2023/10/02 04:16:52;;;;;;;14.20;5.70;;;;;;;;;;4995385;28;20030;-76
2023/10/02 04:19:24;;;;;;;16.05;5.97;;;;;;;;;;4994494;28;20031;-76
2023/10/02 04:21:53;;;;;;;13.85;5.85;;;;;;;;;;4978055;28;20128;-76
2023/10/02 04:24:23;;;;;;;14.80;6.00;;;;;;;;;;4977675;28;20037;-76
2023/10/02 04:27:05;;;;;;;16.33;5.57;;;;;;;;;;4994939;28;20034;-76
2023/10/02 04:29:37;;;;;;;14.88;6.22;;;;;;;;;;4995118;28;20027;-76
2023/10/02 04:32:14;;;;;;;14.95;6.40;;;;;;;;;;4993122;28;20026;-75
2023/10/02 04:34:50;;;;;;;15.55;6.30;;;;;;;;;;4993185;28;20026;-76
2023/10/02 04:37:22;;;;;;;14.52;5.95;;;;;;;;;;4993043;28;20053;-75
2023/10/02 04:42:21;;;;;;;14.85;5.57;;;;;;;;;;4992906;28;20069;-76
2023/10/02 04:44:56;;;;;;;13.43;5.35;;;;;;;;;;4993678;28;20163;-75
2023/10/02 04:47:23;;;;;;;14.40;5.47;;;;;;;;;;4993256;28;20382;-75
2023/10/02 04:50:45;;;;;;;15.88;6.10;;;;;;;;;;4993027;28;20027;-76
2023/10/02 04:52:57;;;;;;;14.93;5.72;;;;;;;;;;4990676;28;20146;-76
2023/10/02 04:55:31;;;;;;;13.43;5.15;;;;;;;;;;4995563;28;20034;-76
2023/10/02 04:58:08;;;;;;;14.70;5.40;;;;;;;;;;4993053;28;20030;-76
2023/10/02 05:01:18;;;;;;;13.85;5.22;;;;;;;;;;4993090;28;20038;-76
2023/10/02 05:03:27;;;;;;;19.63;6.65;;;;;;;;;;4976215;28;20062;-76
2023/10/02 05:05:53;;;;;;;20.30;5.90;;;;;;;;;;4992795;28;20030;-76
2023/10/02 05:08:19;;;;;;;16.48;6.95;;;;;;;;;;4992632;28;20027;-76
2023/10/02 05:11:06;;;;;;;16.90;5.35;;;;;;;;;;4994129;28;20398;-76
2023/10/02 05:13:53;;;;;;;16.00;5.53;;;;;;;;;;4994423;28;20066;-76
2023/10/02 05:16:36;;;;;;;14.55;5.13;;;;;;;;;;4993460;28;20042;-76
2023/10/02 05:19:06;;;;;;;15.88;5.70;;;;;;;;;;4993715;28;20405;-76
2023/10/02 05:21:38;;;;;;;13.02;5.03;;;;;;;;;;4993206;28;20048;-76
2023/10/02 05:24:15;;;;;;;15.88;5.78;;;;;;;;;;4975975;28;20038;-76
2023/10/02 05:26:44;;;;;;;14.82;5.18;;;;;;;;;;4994030;28;20026;-76
2023/10/02 05:29:17;;;;;;;15.98;5.88;;;;;;;;;;4992595;28;20113;-75
2023/10/02 05:31:49;;;;;;;15.40;5.70;;;;;;;;;;4993719;28;20054;-77
2023/10/02 05:34:22;;;;;;;11.52;4.95;;;;;;;;;;4992432;28;20030;-76
2023/10/02 05:39:39;;;;;;;13.65;5.07;;;;;;;;;;4992557;28;20101;-76
2023/10/02 05:42:14;;;;;;;13.90;5.13;;;;;;;;;;4978100;28;20425;-76
2023/10/02 05:44:43;;;;;;;15.07;5.43;;;;;;;;;;4996851;28;20038;-74
2023/10/02 05:47:09;;;;;;;17.05;6.50;;;;;;;;;;5005039;28;20030;-76
2023/10/02 05:50:09;;;;;;;14.57;5.15;;;;;;;;;;4993863;28;20031;-74
2023/10/02 05:52:29;;;;;;;20.75;5.63;;;;;;;;;;5005531;28;20035;-75
2023/10/02 05:54:55;;;;;;;15.55;5.40;;;;;;;;;;4994939;28;20030;-74
2023/10/02 05:57:22;;;;;;;19.95;5.80;;;;;;;;;;4994588;28;20076;-76
2023/10/02 05:59:54;;;;;;;13.55;5.10;;;;;;;;;;4993175;28;20031;-76
2023/10/02 06:02:22;;;;;;;13.52;5.72;;;;;;;;;;4994041;28;20030;-75
2023/10/02 06:04:52;;;;;;;15.68;6.05;;;;;;;;;;4979689;28;20379;-75
2023/10/02 06:07:40;;;;;;;15.27;4.88;;;;;;;;;;4965227;28;20057;-75
2023/10/02 06:10:08;;;;;;;17.63;5.22;;;;;;;;;;4981257;28;20060;-75
2023/10/02 06:12:42;;;;;;;12.20;4.78;;;;;;;;;;4997015;28;20023;-75
2023/10/02 06:15:09;;;;;;;21.13;6.75;;;;;;;;;;4996213;28;20026;-75
2023/10/02 06:17:35;;;;;;;13.45;4.75;;;;;;;;;;4996532;28;20026;-76
2023/10/02 06:20:01;;;;;;;13.45;4.80;;;;;;;;;;4996596;28;20149;-76
2023/10/02 06:22:29;;;;;;;16.33;5.18;;;;;;;;;;4965150;28;20478;-76
2023/10/02 06:24:56;;;;;;;13.45;6.13;;;;;;;;;;4966196;28;20026;-76
2023/10/02 06:27:24;;;;;;;12.55;4.90;;;;;;;;;;4981188;28;20034;-76
2023/10/02 06:29:51;;;;;;;12.43;5.20;;;;;;;;;;4996702;28;20026;-77
2023/10/02 06:32:19;;;;;;;20.15;5.05;;;;;;;;;;4981395;28;20429;-75
2023/10/02 06:34:45;;;;;;;12.88;5.25;;;;;;;;;;4980823;28;20034;-75
2023/10/02 06:37:30;;;;;;;12.77;5.03;;;;;;;;;;4996464;28;20444;-75
2023/10/02 06:40:13;;;;;;;20.33;5.38;;;;;;;;;;4996994;28;20038;-75
2023/10/02 06:42:48;;;;;;;13.27;5.35;;;;;;;;;;4999093;28;20448;-75
2023/10/02 06:45:18;;;;;;;15.82;5.57;;;;;;;;;;4983711;28;20034;-75
2023/10/02 06:47:44;;;;;;;12.60;5.05;;;;;;;;;;4999027;28;20030;-76
2023/10/02 06:52:55;;;;;;;18.33;6.10;;;;;;;;;;4997462;28;20057;-75
2023/10/02 06:55:21;;;;;;;15.05;5.25;;;;;;;;;;4981170;28;20144;-75
2023/10/02 06:57:50;;;;;;;18.85;5.45;;;;;;;;;;5000127;28;20050;-75
2023/10/02 07:00:19;;;;;;;17.48;4.68;;;;;;;;;;5002219;28;20034;-74
2023/10/02 07:02:56;;;;;;;17.05;5.30;;;;;;;;;;4998842;28;20117;-75
2023/10/02 07:05:35;;;;;;;15.20;5.20;;;;;;;;;;4982858;28;20066;-76
2023/10/02 07:08:18;;;;;;;20.73;7.05;;;;;;;;;;5002903;28;20331;-75
2023/10/02 07:10:44;;;;;;;14.30;4.97;;;;;;;;;;4998493;28;20023;-75
2023/10/02 07:13:20;;;;;;;16.27;5.70;;;;;;;;;;4996991;28;20030;-75
2023/10/02 07:15:53;;;;;;;13.40;5.32;;;;;;;;;;4979350;28;20034;-75
2023/10/02 07:18:20;;;;;;;15.18;4.78;;;;;;;;;;4964916;28;20042;-75
2023/10/02 07:20:52;;;;;;;16.55;5.43;;;;;;;;;;4980860;28;20077;-75
2023/10/02 07:23:21;;;;;;;14.55;5.30;;;;;;;;;;4996191;28;20040;-75
2023/10/02 07:25:52;;;;;;;23.20;5.35;;;;;;;;;;4997834;28;20030;-75
2023/10/02 07:28:21;;;;;;;15.32;5.65;;;;;;;;;;4980832;28;20041;-75
2023/10/02 07:30:50;;;;;;;20.63;4.97;;;;;;;;;;4965660;28;20441;-75
2023/10/02 07:33:20;;;;;;;16.50;5.15;;;;;;;;;;4981031;28;20042;-75
2023/10/02 07:35:52;;;;;;;14.07;4.90;;;;;;;;;;4965534;28;20042;-76
2023/10/02 07:38:19;;;;;;;15.20;5.72;;;;;;;;;;4981411;28;20137;-76
2023/10/02 07:43:37;;;;;;;20.73;5.30;;;;;;;;;;5000232;28;20103;-76
2023/10/02 07:46:14;;;;;;;18.45;6.30;;;;;;;;;;4999302;28;20030;-76
2023/10/02 07:48:41;;;;;;;12.65;5.22;;;;;;;;;;4982516;28;20048;-76
2023/10/02 07:51:09;;;;;;;18.67;4.85;;;;;;;;;;5004411;28;20562;-76
2023/10/02 07:53:48;;;;;;;17.92;6.15;;;;;;;;;;4985171;28;20030;-76
2023/10/02 07:56:16;;;;;;;22.60;5.38;;;;;;;;;;4985105;28;20034;-76
2023/10/02 07:58:43;;;;;;;13.07;4.88;;;;;;;;;;4984158;28;20033;-76
2023/10/02 08:01:12;;;;;;;20.20;5.93;;;;;;;;;;4968240;28;20109;-75
2023/10/02 08:03:42;;;;;;;;;;;;;;;;;;4988605;28;20034;-75
2023/10/02 08:06:45;;;;;;;18.75;5.65;;;;;;;;;;5005246;28;19910;-75
2023/10/02 08:11:51;;;;;;;16.80;5.63;;;;;;;;;;4987909;28;20030;-75
2023/10/02 08:14:38;;;;;;;17.17;5.18;;;;;;;;;;4969542;28;20085;-77
2023/10/02 08:19:54;;;;;;;15.27;5.18;;;;;;;;;;4984902;28;20591;-73
2023/10/02 08:22:23;;;;;;;15.27;5.40;;;;;;;;;;4985878;28;20120;-74
2023/10/02 08:24:52;;;;;;;14.65;5.38;;;;;;;;;;5002493;28;20050;-74
2023/10/02 08:27:18;;;;;;;12.07;5.03;;;;;;;;;;4988704;28;20030;-74
2023/10/02 08:29:45;;;;;;;17.20;5.25;;;;;;;;;;4984977;28;20077;-74
2023/10/02 08:32:11;;;;;;;14.57;4.85;;;;;;;;;;4986012;28;20039;-75
2023/10/02 08:34:37;;;;;;;16.63;5.65;;;;;;;;;;4979746;28;20490;-75
2023/10/02 08:37:07;;;;;;;16.17;5.38;;;;;;;;;;4968432;28;20036;-75
2023/10/02 08:39:34;;;;;;;20.58;5.72;;;;;;;;;;4965755;28;20034;-75
2023/10/02 08:42:08;;;;;;;13.25;5.68;;;;;;;;;;4998663;28;20069;-75
2023/10/02 08:44:38;;;;;;;14.52;5.63;;;;;;;;;;4980422;28;20038;-75
2023/10/02 08:47:06;;;;;;;13.57;5.20;;;;;;;;;;4966952;28;20030;-75
2023/10/02 08:49:36;;;;;;;13.63;5.30;;;;;;;;;;4981884;28;20025;-76
2023/10/02 08:52:17;;;;;;;17.85;5.50;;;;;;;;;;4981216;28;20019;-75
2023/10/02 08:54:52;;;;;;;11.32;5.13;;;;;;;;;;4967215;28;20037;-76
2023/10/02 08:57:47;;;;;;;14.75;5.32;;;;;;;;;;4964032;28;20027;-75
2023/10/02 09:00:15;;;;;;;15.57;5.63;;;;;;;;;;4995128;28;20070;-75
2023/10/02 09:02:41;;;;;;;14.60;6.55;;;;;;;;;;4960906;28;20036;-74
2023/10/02 09:05:11;;;;;;;14.80;5.80;;;;;;;;;;4992489;28;20027;-74
2023/10/02 09:10:33;;;;;;;13.23;5.68;;;;;;;;;;4976309;28;20050;-75
2023/10/02 09:13:20;;;;;;;19.45;6.65;;;;;;;;;;4975853;28;20030;-75
2023/10/02 09:15:48;;;;;;;13.55;5.45;;;;;;;;;;4975663;28;20041;-75
2023/10/02 09:18:34;;;;;;;14.65;6.60;;;;;;;;;;4976570;28;20047;-76
2023/10/02 09:21:15;;;;;;;13.20;5.40;;;;;;;;;;4968583;28;20066;-74
2023/10/02 09:23:53;;;;;;;12.73;5.60;;;;;;;;;;4974510;28;20034;-75
2023/10/02 09:26:23;;;;;;;16.05;6.47;;;;;;;;;;4976580;28;20027;-75
2023/10/02 09:28:59;;;;;;;17.60;8.20;;;;;;;;;;4975997;28;20541;-75
2023/10/02 09:31:47;;;;;;;17.88;7.35;;;;;;;;;;4986493;28;20078;-76
2023/10/02 09:34:16;;;;;;;14.63;6.90;;;;;;;;;;4972626;28;20435;-76
2023/10/02 09:36:52;;;;;;;19.60;7.32;;;;;;;;;;4964597;28;20030;-75
2023/10/02 09:42:07;;;;;;;16.38;6.45;;;;;;;;;;4971926;28;20038;-74
2023/10/02 09:44:40;;;;;;;19.05;6.93;;;;;;;;;;4971396;28;20486;-75
2023/10/02 09:47:13;;;;;;;19.67;7.15;;;;;;;;;;4944591;28;20053;-75
2023/10/02 09:49:47;;;;;;;15.48;6.72;;;;;;;;;;4975819;28;20092;-75
2023/10/02 09:52:33;;;;;;;19.42;7.25;;;;;;;;;;4976612;28;20045;-76
2023/10/02 09:55:06;;;;;;;19.60;7.05;;;;;;;;;;4959877;28;20046;-76
2023/10/02 09:57:49;;;;;;;18.63;7.07;;;;;;;;;;4976161;28;20068;-77
2023/10/02 10:03:31;;;;;;;16.83;6.32;;;;;;;;;;4994593;28;20049;-76
2023/10/02 10:06:05;;;;;;;16.30;7.13;;;;;;;;;;4976986;28;20240;-77
2023/10/02 10:09:18;;;;;;;15.90;7.22;;;;;;;;;;4960279;28;20101;-77
2023/10/02 10:11:42;;;;;;;17.67;7.38;;;;;;;;;;4993832;28;20062;-78
2023/10/02 10:14:40;;;;;;;22.02;6.60;;;;;;;;;;4993051;28;20505;-76
2023/10/02 10:17:18;;;;;;;17.10;6.82;;;;;;;;;;4969519;28;20045;-76
2023/10/02 10:20:41;;;;;;;17.33;7.15;;;;;;;;;;4992515;28;20084;-76
2023/10/02 10:22:55;;;;;;;21.02;7.38;;;;;;;;;;4988009;28;20096;-76
2023/10/02 10:27:58;;;;;;;23.05;7.65;;;;;;;;;;4990020;28;20030;-77
2023/10/02 10:35:49;;;;;;;27.30;12.98;;;;;;;;;;4978688;28;20026;-76
2023/10/02 10:38:44;;;;;;;18.45;7.90;;;;;;;;;;4959890;28;20061;-77
2023/10/02 10:41:26;;;;;;;21.75;9.30;;;;;;;;;;4991632;28;20062;-77
2023/10/02 10:43:55;;;;;;;20.17;9.13;;;;;;;;;;4992996;28;20113;-78
2023/10/02 10:46:24;;;;;;;20.83;9.88;;;;;;;;;;4991513;28;20058;-78
2023/10/02 10:48:59;;;;;;;28.00;15.85;;;;;;;;;;4992269;28;20027;-78
2023/10/02 10:51:28;;;;;;;20.75;8.73;;;;;;;;;;4994828;28;20026;-77
2023/10/02 10:54:13;;;;;;;17.70;8.02;;;;;;;;;;4996357;28;20030;-76
2023/10/02 10:56:44;;;;;;;20.35;8.43;;;;;;;;;;5011568;28;20031;-77
2023/10/02 10:59:12;;;;;;;19.77;8.95;;;;;;;;;;4993328;28;20054;-76
2023/10/02 11:01:38;;;;;;;;;;;;;;;;;;4968441;28;20080;-77
2023/10/02 11:04:05;;;;;;;17.95;7.47;;;;;;;;;;4979029;28;20000;-77
2023/10/02 11:06:31;;;;;;;19.35;7.22;;;;;;;;;;4983557;28;20462;-77
2023/10/02 11:09:11;;;;;;;15.23;7.18;;;;;;;;;;4985941;28;20042;-78
2023/10/02 11:11:48;;;;;;;19.90;8.07;;;;;;;;;;5001645;28;20439;-76
2023/10/02 11:14:20;;;;;;;16.55;7.03;;;;;;;;;;4995782;28;20085;-75
2023/10/02 11:16:53;;;;;;;18.25;7.53;;;;;;;;;;4996410;28;20113;-75
2023/10/02 11:19:34;;;;;;;22.10;8.05;;;;;;;;;;4978562;28;20031;-77
2023/10/02 11:22:02;;;;;;;24.00;7.75;;;;;;;;;;4994668;28;20042;-76
2023/10/02 11:24:28;;;;;;;16.35;7.43;;;;;;;;;;4995242;28;20401;-75
2023/10/02 11:27:15;;;;;;;16.73;7.35;;;;;;;;;;4995244;28;20117;-75
2023/10/02 11:29:41;;;;;;;17.67;6.95;;;;;;;;;;4981994;28;20397;-75
2023/10/02 11:32:19;;;;;;;19.55;7.68;;;;;;;;;;4981657;28;20410;-75
2023/10/02 11:34:49;;;;;;;17.55;6.95;;;;;;;;;;4994915;28;20113;-75
2023/10/02 11:37:15;;;;;;;17.02;7.40;;;;;;;;;;5010617;28;20105;-75
2023/10/02 11:39:42;;;;;;;17.13;7.30;;;;;;;;;;5011116;28;20054;-75
2023/10/02 11:42:08;;;;;;;19.25;7.05;;;;;;;;;;4978101;28;20038;-75
2023/10/02 11:44:34;;;;;;;15.98;7.15;;;;;;;;;;4993788;28;20391;-74
2023/10/02 11:46:59;;;;;;;15.30;7.38;;;;;;;;;;4997560;28;20041;-75
2023/10/02 11:49:29;;;;;;;17.27;7.10;;;;;;;;;;4990432;28;20456;-74
2023/10/02 11:52:02;;;;;;;15.68;6.35;;;;;;;;;;4974587;28;20027;-74
2023/10/02 11:54:28;;;;;;;16.67;7.18;;;;;;;;;;4969637;28;20100;-74
2023/10/02 11:56:54;;;;;;;22.20;7.85;;;;;;;;;;4961898;28;20102;-75
2023/10/02 11:59:20;;;;;;;13.48;6.05;;;;;;;;;;4974634;28;20038;-75
2023/10/02 12:01:48;;;;;;;13.88;5.95;;;;;;;;;;4961471;28;20077;-75
2023/10/02 12:04:14;;;;;;;14.70;6.63;;;;;;;;;;4977410;28;20035;-75
2023/10/02 12:06:40;;;;;;;14.63;6.68;;;;;;;;;;4994947;28;20030;-75
2023/10/02 12:09:17;;;;;;;14.73;6.43;;;;;;;;;;4976910;28;20130;-75
2023/10/02 12:11:43;;;;;;;16.33;6.00;;;;;;;;;;4978396;28;20033;-75
2023/10/02 12:14:09;;;;;;;18.00;7.15;;;;;;;;;;4992733;28;20513;-75
2023/10/02 12:16:35;;;;;;;14.05;6.80;;;;;;;;;;4993450;28;20066;-75
2023/10/02 12:19:00;;;;;;;15.95;6.60;;;;;;;;;;4983209;28;20026;-75
2023/10/02 12:21:26;;;;;;;13.75;6.30;;;;;;;;;;4976879;28;20031;-75
2023/10/02 12:23:51;;;;;;;14.65;6.40;;;;;;;;;;4993134;28;20034;-75
2023/10/02 12:26:20;;;;;;;15.75;5.82;;;;;;;;;;4992923;28;20093;-75
2023/10/02 12:28:46;;;;;;;20.00;6.68;;;;;;;;;;4995346;28;20541;-76
2023/10/02 12:31:13;;;;;;;13.20;6.18;;;;;;;;;;4992263;28;20430;-75
2023/10/02 12:33:42;;;;;;;12.43;5.95;;;;;;;;;;4976743;28;20478;-76
2023/10/02 12:36:19;;;;;;;12.52;6.30;;;;;;;;;;5009331;28;20506;-76
2023/10/02 12:38:46;;;;;;;13.80;5.45;;;;;;;;;;4977330;28;20046;-76
2023/10/02 12:41:15;;;;;;;14.25;5.57;;;;;;;;;;4992705;28;20453;-76
2023/10/02 12:43:45;;;;;;;10.50;5.30;;;;;;;;;;4976685;28;20116;-76
2023/10/02 12:46:14;;;;;;;12.35;5.68;;;;;;;;;;4976208;28;20160;-75
2023/10/02 12:48:48;;;;;;;10.68;5.47;;;;;;;;;;5008707;28;20034;-76
2023/10/02 12:51:17;;;;;;;16.88;6.47;;;;;;;;;;4961026;28;20050;-76
2023/10/02 12:53:43;;;;;;;12.27;5.50;;;;;;;;;;4974859;28;20486;-76
2023/10/02 12:56:15;;;;;;;10.93;5.38;;;;;;;;;;4975894;28;20030;-75
2023/10/02 12:58:40;;;;;;;11.68;4.80;;;;;;;;;;4992424;28;20026;-75
2023/10/02 13:01:06;;;;;;;11.90;5.28;;;;;;;;;;4995396;28;20509;-76
2023/10/02 13:03:34;;;;;;;;;;;;;;;;;;5008102;28;20052;-75
2023/10/02 13:06:01;;;;;;;9.00;3.83;;;;;;;;;;4992360;28;19906;-75
2023/10/02 13:08:27;;;;;;;9.30;4.32;;;;;;;;;;4992498;28;20030;-75
2023/10/02 13:10:53;;;;;;;10.00;4.43;;;;;;;;;;4976379;28;20034;-76
2023/10/02 13:13:19;;;;;;;10.25;4.30;;;;;;;;;;4991290;28;20142;-76
2023/10/02 13:15:48;;;;;;;11.98;4.38;;;;;;;;;;5005752;28;20508;-76
2023/10/02 13:18:17;;;;;;;10.38;4.60;;;;;;;;;;4978656;28;20433;-76
2023/10/02 13:20:43;;;;;;;14.63;4.80;;;;;;;;;;4986473;28;20061;-77
2023/10/02 13:23:10;;;;;;;9.13;4.68;;;;;;;;;;4992538;28;20022;-76
2023/10/02 13:25:38;;;;;;;12.20;5.35;;;;;;;;;;4972337;28;20026;-77
2023/10/02 13:28:04;;;;;;;9.73;4.47;;;;;;;;;;4964497;28;20034;-77
2023/10/02 13:30:30;;;;;;;10.50;4.25;;;;;;;;;;4980674;28;20515;-76
2023/10/02 13:32:56;;;;;;;15.82;4.60;;;;;;;;;;4971312;28;20121;-76
2023/10/02 13:35:23;;;;;;;12.27;4.85;;;;;;;;;;4989670;28;20447;-76
2023/10/02 13:37:50;;;;;;;9.73;4.68;;;;;;;;;;4975461;28;20120;-76
2023/10/02 13:40:25;;;;;;;9.48;4.28;;;;;;;;;;4985058;28;20368;-77
2023/10/02 13:45:45;;;;;;;11.23;4.63;;;;;;;;;;4977233;28;20054;-77
2023/10/02 13:48:16;;;;;;;8.77;3.53;;;;;;;;;;4982629;28;20034;-76
2023/10/02 13:50:45;;;;;;;12.65;3.95;;;;;;;;;;4985985;28;20030;-76
2023/10/02 13:53:10;;;;;;;8.10;4.35;;;;;;;;;;4975360;28;20050;-76
2023/10/02 13:55:39;;;;;;;10.05;4.40;;;;;;;;;;4968773;28;20018;-76
2023/10/02 13:58:08;;;;;;;9.48;3.92;;;;;;;;;;4982906;28;20059;-76
2023/10/02 14:00:39;;;;;;;9.48;3.78;;;;;;;;;;4984395;28;20037;-77
2023/10/02 14:03:09;;;;;;;11.10;4.18;;;;;;;;;;4958711;28;20054;-77
2023/10/02 14:05:35;;;;;;;13.13;4.38;;;;;;;;;;4972126;28;20053;-76
2023/10/02 14:08:01;;;;;;;12.82;4.18;;;;;;;;;;4963857;28;20030;-76
2023/10/02 14:10:29;;;;;;;10.98;4.82;;;;;;;;;;4964564;28;20031;-76
2023/10/02 14:12:57;;;;;;;11.70;4.68;;;;;;;;;;4986798;28;20030;-76
2023/10/02 14:15:34;;;;;;;9.38;4.35;;;;;;;;;;4976203;28;20034;-75
2023/10/02 14:18:00;;;;;;;9.20;3.90;;;;;;;;;;4967183;28;20113;-76
2023/10/02 14:20:27;;;;;;;9.50;4.57;;;;;;;;;;4983831;28;20109;-76
2023/10/02 14:22:56;;;;;;;11.02;4.43;;;;;;;;;;4944293;28;20173;-76
2023/10/02 14:25:25;;;;;;;15.73;5.18;;;;;;;;;;4971085;28;20125;-76
2023/10/02 14:28:00;;;;;;;15.23;5.22;;;;;;;;;;4974317;28;20027;-76
2023/10/02 14:30:33;;;;;;;16.08;5.53;;;;;;;;;;4994524;28;20026;-76
2023/10/02 14:33:02;;;;;;;13.57;6.07;;;;;;;;;;4962724;28;20138;-77
2023/10/02 14:35:34;;;;;;;12.20;5.28;;;;;;;;;;4991976;28;20066;-76
2023/10/02 14:38:03;;;;;;;14.23;5.97;;;;;;;;;;4966949;28;20390;-77
2023/10/02 14:40:38;;;;;;;15.52;5.30;;;;;;;;;;4966505;28;20039;-76
2023/10/02 14:43:11;;;;;;;16.20;6.25;;;;;;;;;;4974801;28;20397;-76
2023/10/02 14:45:44;;;;;;;13.02;5.70;;;;;;;;;;4957195;28;20027;-76
2023/10/02 14:48:16;;;;;;;11.95;5.40;;;;;;;;;;4944412;28;20057;-76
2023/10/02 14:50:50;;;;;;;16.27;5.82;;;;;;;;;;4956411;28;20034;-76
2023/10/02 14:53:16;;;;;;;12.23;5.50;;;;;;;;;;4960486;28;20403;-76
2023/10/02 14:55:49;;;;;;;16.33;5.28;;;;;;;;;;4988709;28;20445;-77
2023/10/02 14:58:21;;;;;;;16.38;5.80;;;;;;;;;;4984563;28;20522;-77
2023/10/02 15:00:53;;;;;;;19.63;5.65;;;;;;;;;;4979839;28;20049;-76
2023/10/02 15:03:25;;;;;;;12.82;5.40;;;;;;;;;;4974135;28;20038;-77
2023/10/02 15:06:01;;;;;;;10.30;5.30;;;;;;;;;;4933647;28;20506;-76
2023/10/02 15:08:33;;;;;;;13.57;5.53;;;;;;;;;;4964356;28;20030;-77
2023/10/02 15:11:02;;;;;;;11.15;5.45;;;;;;;;;;4962322;28;20035;-77
2023/10/02 15:13:39;;;;;;;12.40;5.10;;;;;;;;;;4950829;28;20030;-76
2023/10/02 15:16:33;;;;;;;12.27;6.03;;;;;;;;;;4986294;28;20383;-77
2023/10/02 15:18:59;;;;;;;12.90;5.90;;;;;;;;;;4991992;28;20550;-76
2023/10/02 15:21:28;;;;;;;12.15;5.03;;;;;;;;;;4964338;28;20037;-76
2023/10/02 15:24:00;;;;;;;12.32;5.43;;;;;;;;;;4955955;28;20031;-76
2023/10/02 15:26:29;;;;;;;13.00;5.00;;;;;;;;;;4969926;28;20034;-78
2023/10/02 15:29:01;;;;;;;14.82;5.68;;;;;;;;;;4969976;28;20030;-77
2023/10/02 15:31:30;;;;;;;14.10;5.57;;;;;;;;;;4946531;28;20018;-75
2023/10/02 15:34:00;;;;;;;11.65;4.32;;;;;;;;;;4969972;28;20031;-75
2023/10/02 15:36:29;;;;;;;13.98;5.60;;;;;;;;;;4986457;28;20050;-77
2023/10/02 15:39:02;;;;;;;11.68;4.95;;;;;;;;;;4994707;28;20482;-77